createdAt,value
2022-12-28T00:02:19.603Z,101288.84
2022-12-28T00:04:48.031Z,101285.28
2022-12-28T00:07:16.677Z,101286.19
2022-12-28T00:09:44.446Z,101291.44
2022-12-28T00:12:12.193Z,101280.88
2022-12-28T00:14:39.853Z,101291.47
2022-12-28T00:17:07.958Z,101288.81
2022-12-28T00:19:35.784Z,101287.06
2022-12-28T00:22:03.882Z,101283.53
2022-12-28T00:24:31.774Z,101280.03
2022-12-28T00:26:59.918Z,101267.69
2022-12-28T00:29:27.644Z,101263.28
2022-12-28T00:31:55.970Z,101258.03
2022-12-28T00:34:25.323Z,101255.38
2022-12-28T00:37:09.633Z,101253.66
2022-12-28T00:39:39.975Z,101252.75
2022-12-28T00:42:08.036Z,101243.09
2022-12-28T00:44:38.003Z,101242.19
2022-12-28T00:47:05.972Z,101235.16
2022-12-28T00:49:33.663Z,101229.00
2022-12-28T00:52:02.332Z,101226.34
2022-12-28T00:54:30.154Z,101229.88
2022-12-28T00:56:58.031Z,101228.13
2022-12-28T00:59:26.016Z,101218.41
2022-12-28T01:01:53.768Z,101225.47
2022-12-28T01:04:22.832Z,101210.53
2022-12-28T01:06:50.601Z,101212.31
2022-12-28T01:09:18.373Z,101205.25
2022-12-28T01:11:46.232Z,101207.91
2022-12-28T01:14:13.984Z,101198.19
2022-12-28T01:16:41.727Z,101199.97
2022-12-28T01:19:19.167Z,101184.97
2022-12-28T01:21:50.386Z,101184.97
2022-12-28T01:24:18.656Z,101192.91
2022-12-28T01:26:46.278Z,101186.75
2022-12-28T01:29:14.000Z,101190.28
2022-12-28T01:31:41.882Z,101187.59
2022-12-28T01:34:09.840Z,101174.41
2022-12-28T01:36:37.840Z,101181.44
2022-12-28T01:39:07.232Z,101178.75
2022-12-28T01:41:41.389Z,101172.59
2022-12-28T01:44:10.336Z,101171.72
2022-12-28T01:46:48.040Z,101169.06
2022-12-28T01:49:23.135Z,101170.81
2022-12-28T01:51:57.256Z,101165.50
2022-12-28T01:54:30.529Z,101162.00
2022-12-28T01:56:58.940Z,101156.72
2022-12-28T01:59:31.220Z,101154.06
2022-12-28T02:01:59.518Z,101149.63
2022-12-28T02:04:27.594Z,101146.06
2022-12-28T02:06:56.188Z,101142.50
2022-12-28T02:09:33.173Z,101126.66
2022-12-28T02:12:01.228Z,101114.34
2022-12-28T02:14:30.265Z,101118.69
2022-12-28T02:16:58.162Z,101102.84
2022-12-28T02:19:46.403Z,101108.09
2022-12-28T02:22:40.414Z,101103.69
2022-12-28T02:25:54.327Z,101090.44
2022-12-28T02:28:46.285Z,101115.97
2022-12-28T02:31:41.965Z,101094.78
2022-12-28T02:34:27.112Z,101097.41
2022-12-28T02:37:07.360Z,101084.19
2022-12-28T02:39:43.269Z,101087.63
2022-12-28T02:42:13.025Z,101095.56
2022-12-28T02:44:59.450Z,101097.31
2022-12-28T02:47:45.897Z,101082.34
2022-12-28T02:50:15.955Z,101087.59
2022-12-28T02:53:13.777Z,101078.72
2022-12-28T02:56:08.007Z,101080.50
2022-12-28T02:59:22.435Z,101055.81
2022-12-28T03:02:28.268Z,101054.03
2022-12-28T03:05:49.425Z,101054.91
2022-12-28T03:08:28.206Z,101055.75
2022-12-28T03:11:16.070Z,101053.06
2022-12-28T03:14:06.682Z,101051.28
2022-12-28T03:16:57.795Z,101044.22
2022-12-28T03:20:03.105Z,101044.22
2022-12-28T03:22:52.409Z,101041.59
2022-12-28T03:25:44.110Z,101033.69
2022-12-28T03:28:37.583Z,101034.59
2022-12-28T03:31:18.945Z,101021.38
2022-12-28T03:34:06.788Z,101018.78
2022-12-28T03:36:54.685Z,101009.09
2022-12-28T03:39:42.484Z,101012.56
2022-12-28T03:43:02.595Z,101011.69
2022-12-28T03:45:54.282Z,101008.19
2022-12-28T03:48:23.917Z,101009.06
2022-12-28T03:50:53.721Z,101017.84
2022-12-28T03:53:28.856Z,101014.31
2022-12-28T03:56:16.268Z,101007.25
2022-12-28T03:58:46.507Z,101000.19
2022-12-28T04:01:16.411Z,100992.25
2022-12-28T04:03:45.161Z,100983.41
2022-12-28T04:06:16.518Z,100977.22
2022-12-28T04:08:45.340Z,100981.63
2022-12-28T04:11:13.697Z,100975.41
2022-12-28T04:13:44.366Z,100977.16
2022-12-28T04:16:14.901Z,100970.09
2022-12-28T04:18:44.530Z,100965.69
2022-12-28T04:21:14.089Z,100965.63
2022-12-28T04:23:45.399Z,100971.78
2022-12-28T04:26:22.259Z,100968.19
2022-12-28T04:28:53.160Z,100962.88
2022-12-28T04:31:59.438Z,100962.00
2022-12-28T04:34:27.261Z,100957.56
2022-12-28T04:37:00.165Z,100951.41
2022-12-28T04:39:28.609Z,100956.66
2022-12-28T04:42:16.385Z,100944.34
2022-12-28T04:44:44.077Z,100941.63
2022-12-28T04:47:11.743Z,100944.25
2022-12-28T04:49:39.657Z,100935.38
2022-12-28T04:52:07.281Z,100938.88
2022-12-28T04:54:35.124Z,100931.81
2022-12-28T04:57:02.842Z,100923.81
2022-12-28T04:59:30.610Z,100931.72
2022-12-28T05:01:58.589Z,100929.03
2022-12-28T05:04:26.594Z,100934.31
2022-12-28T05:06:54.268Z,100926.41
2022-12-28T05:09:22.042Z,100937.84
2022-12-28T05:11:50.439Z,100934.25
2022-12-28T05:14:18.288Z,100943.03
2022-12-28T05:16:52.050Z,100930.56
2022-12-28T05:19:19.739Z,100924.38
2022-12-28T05:21:47.449Z,100927.00
2022-12-28T05:24:15.207Z,100941.84
2022-12-28T05:26:42.875Z,100927.75
2022-12-28T05:29:10.560Z,100917.09
2022-12-28T05:31:38.384Z,100915.28
2022-12-28T05:34:06.096Z,100912.59
2022-12-28T05:36:53.728Z,100903.75
2022-12-28T05:39:21.396Z,100909.00
2022-12-28T05:41:49.142Z,100893.09
2022-12-28T05:44:16.857Z,100905.41
2022-12-28T05:46:44.525Z,100900.94
2022-12-28T05:49:12.268Z,100895.63
2022-12-28T05:51:40.321Z,100896.53
2022-12-28T05:54:08.278Z,100886.75
2022-12-28T05:56:36.549Z,100886.75
2022-12-28T05:59:07.501Z,100879.66
2022-12-28T06:01:39.062Z,100881.47
2022-12-28T06:04:13.682Z,100887.59
2022-12-28T06:06:41.387Z,100886.69
2022-12-28T06:09:09.299Z,100882.25
2022-12-28T06:11:37.127Z,100891.13
2022-12-28T06:14:05.860Z,100885.78
2022-12-28T06:16:37.340Z,100879.56
2022-12-28T06:19:10.556Z,100887.78
2022-12-28T06:21:40.648Z,100886.81
2022-12-28T06:24:09.721Z,100881.53
2022-12-28T06:26:39.369Z,100882.34
2022-12-28T06:29:08.092Z,100870.03
2022-12-28T06:31:40.032Z,100876.16
2022-12-28T06:34:09.541Z,100862.03
2022-12-28T06:36:41.313Z,100875.22
2022-12-28T06:39:13.041Z,100869.91
2022-12-28T06:41:42.000Z,100873.38
2022-12-28T06:44:12.343Z,100879.47
2022-12-28T06:46:40.398Z,100868.00
2022-12-28T06:49:08.553Z,100871.47
2022-12-28T06:51:41.965Z,100858.19
2022-12-28T06:54:11.237Z,100874.91
2022-12-28T06:56:39.486Z,100872.22
2022-12-28T06:59:07.709Z,100862.56
2022-12-28T07:01:39.896Z,100858.06
2022-12-28T07:04:10.009Z,100863.41
2022-12-28T07:06:44.028Z,100848.38
2022-12-28T07:09:15.529Z,100851.94
2022-12-28T07:11:44.811Z,100849.31
2022-12-28T07:14:12.572Z,100844.06
2022-12-28T07:19:06.896Z,100849.22
2022-12-28T07:21:39.083Z,100839.44
2022-12-28T07:24:08.081Z,100843.88
2022-12-28T07:26:37.590Z,100842.97
2022-12-28T07:29:06.926Z,100839.44
2022-12-28T07:31:44.758Z,100838.53
2022-12-28T07:34:15.256Z,100842.97
2022-12-28T07:36:43.852Z,100845.66
2022-12-28T07:39:11.904Z,100834.97
2022-12-28T07:41:39.908Z,100832.31
2022-12-28T07:44:08.037Z,100841.13
2022-12-28T07:46:37.906Z,100843.78
2022-12-28T07:49:06.462Z,100827.09
2022-12-28T07:51:37.560Z,100832.41
2022-12-28T07:54:06.841Z,100835.91
2022-12-28T07:59:05.336Z,100822.66
2022-12-28T08:01:36.961Z,100815.59
2022-12-28T08:04:09.375Z,100822.53
2022-12-28T08:06:40.640Z,100823.38
2022-12-28T08:09:11.245Z,100818.06
2022-12-28T08:11:44.766Z,100822.34
2022-12-28T08:14:12.902Z,100816.13
2022-12-28T08:16:44.208Z,100816.91
2022-12-28T08:19:12.212Z,100819.53
2022-12-28T08:21:44.739Z,100796.47
2022-12-28T08:24:20.376Z,100807.84
2022-12-28T08:26:49.153Z,100804.31
2022-12-28T08:29:21.358Z,100799.81
2022-12-28T08:31:50.318Z,100796.25
2022-12-28T08:34:26.521Z,100804.94
2022-12-28T08:36:56.094Z,100806.63
2022-12-28T08:39:24.510Z,100793.31
2022-12-28T08:41:52.552Z,100801.13
2022-12-28T08:44:20.465Z,100802.78
2022-12-28T08:46:48.439Z,100790.34
2022-12-28T08:49:16.603Z,100797.31
2022-12-28T08:51:44.424Z,100794.56
2022-12-28T08:54:14.327Z,100796.22
2022-12-28T08:56:45.157Z,100792.59
2022-12-28T08:59:18.734Z,100783.63
2022-12-28T09:01:47.502Z,100774.72
2022-12-28T09:04:22.686Z,100786.00
2022-12-28T09:06:50.872Z,100775.34
2022-12-28T09:09:21.010Z,100781.41
2022-12-28T09:11:50.158Z,100776.88
2022-12-28T09:14:23.804Z,100789.09
2022-12-28T09:16:53.762Z,100779.28
2022-12-28T09:19:22.387Z,100773.91
2022-12-28T09:21:53.094Z,100782.53
2022-12-28T09:24:22.843Z,100793.03
2022-12-28T09:26:52.937Z,100782.31
2022-12-28T09:29:21.289Z,100787.44
2022-12-28T09:31:49.061Z,100787.28
2022-12-28T09:37:07.467Z,100783.41
2022-12-28T09:39:35.572Z,100782.38
2022-12-28T09:42:24.446Z,100783.06
2022-12-28T09:45:00.971Z,100783.94
2022-12-28T09:47:58.907Z,100785.47
2022-12-28T09:50:32.979Z,100774.72
2022-12-28T09:53:06.900Z,100783.31
2022-12-28T09:55:38.334Z,100774.31
2022-12-28T09:58:14.953Z,100778.56
2022-12-28T10:00:55.001Z,100773.13
2022-12-28T10:03:41.749Z,100773.75
2022-12-28T10:06:35.541Z,100773.59
2022-12-28T10:09:10.789Z,100776.94
2022-12-28T10:11:43.880Z,100763.53
2022-12-28T10:14:28.113Z,100773.88
2022-12-28T10:16:56.957Z,100765.88
2022-12-28T10:19:27.510Z,100760.41
2022-12-28T10:22:02.107Z,100747.13
2022-12-28T10:24:33.923Z,100742.44
2022-12-28T10:27:05.771Z,100752.00
2022-12-28T10:29:35.028Z,100741.41
2022-12-28T10:32:09.523Z,100741.94
2022-12-28T10:34:53.309Z,100733.78
2022-12-28T10:37:21.549Z,100737.19
2022-12-28T10:40:00.093Z,100733.28
2022-12-28T10:42:40.490Z,100720.78
2022-12-28T10:45:34.821Z,100717.03
2022-12-28T10:48:15.978Z,100723.91
2022-12-28T10:50:53.857Z,100716.72
2022-12-28T10:53:27.288Z,100711.16
2022-12-28T10:56:14.604Z,100704.81
2022-12-28T10:58:48.459Z,100697.53
2022-12-28T11:01:27.517Z,100696.38
2022-12-28T11:03:55.361Z,100690.13
2022-12-28T11:06:33.318Z,100690.81
2022-12-28T11:09:21.666Z,100679.19
2022-12-28T11:11:54.985Z,100681.72
2022-12-28T11:14:36.786Z,100676.22
2022-12-28T11:17:27.538Z,100669.84
2022-12-28T11:20:21.246Z,100662.56
2022-12-28T11:22:49.303Z,100661.63
2022-12-28T11:25:20.136Z,100647.25
2022-12-28T11:27:48.709Z,100650.63
2022-12-28T11:30:19.652Z,100650.31
2022-12-28T11:33:10.182Z,100646.56
2022-12-28T11:35:40.207Z,100644.41
2022-12-28T11:38:47.209Z,100641.41
2022-12-28T11:41:26.465Z,100628.81
2022-12-28T11:44:02.888Z,100629.50
2022-12-28T11:46:30.666Z,100617.59
2022-12-28T11:49:22.631Z,100625.19
2022-12-28T11:52:16.559Z,100616.81
2022-12-28T11:54:53.107Z,100619.16
2022-12-28T11:57:44.229Z,100610.00
2022-12-28T12:00:22.826Z,100594.94
2022-12-28T12:03:01.022Z,100602.00
2022-12-28T12:05:38.188Z,100600.00
2022-12-28T12:08:12.560Z,100588.47
2022-12-28T12:10:42.739Z,100578.88
2022-12-28T12:13:25.851Z,100581.28
2022-12-28T12:16:08.116Z,100569.94
2022-12-28T12:18:49.232Z,100569.91
2022-12-28T12:21:44.971Z,100567.44
2022-12-28T12:24:37.339Z,100564.50
2022-12-28T12:27:23.152Z,100563.44
2022-12-28T12:30:05.739Z,100557.91
2022-12-28T12:32:43.963Z,100549.69
2022-12-28T12:35:21.067Z,100552.09
2022-12-28T12:38:21.072Z,100546.44
2022-12-28T12:41:33.220Z,100539.28
2022-12-28T12:44:55.064Z,100534.25
2022-12-28T12:48:07.118Z,100538.75
2022-12-28T12:51:00.895Z,100535.13
2022-12-28T12:53:52.674Z,100533.31
2022-12-28T12:56:59.047Z,100517.66
2022-12-28T12:59:59.220Z,100525.50
2022-12-28T13:03:09.009Z,100513.00
2022-12-28T13:05:41.556Z,100512.78
2022-12-28T13:08:35.486Z,100494.66
2022-12-28T13:11:03.877Z,100489.44
2022-12-28T13:13:37.294Z,100492.78
2022-12-28T13:16:17.324Z,100488.28
2022-12-28T13:18:54.524Z,100480.31
2022-12-28T13:21:24.256Z,100478.69
2022-12-28T13:23:53.123Z,100468.81
2022-12-28T13:26:29.847Z,100467.94
2022-12-28T13:29:02.609Z,100467.81
2022-12-28T13:31:37.696Z,100462.59
2022-12-28T13:34:12.820Z,100466.00
2022-12-28T13:37:00.041Z,100458.03
2022-12-28T13:39:30.413Z,100450.09
2022-12-28T13:42:18.075Z,100449.09
2022-12-28T13:45:03.453Z,100448.25
2022-12-28T13:47:47.731Z,100452.00
2022-12-28T13:50:27.266Z,100438.69
2022-12-28T13:53:15.992Z,100437.03
2022-12-28T13:55:44.008Z,100442.50
2022-12-28T13:58:34.510Z,100432.66
2022-12-28T14:01:09.182Z,100438.00
2022-12-28T14:03:43.353Z,100434.44
2022-12-28T14:06:16.543Z,100432.63
2022-12-28T14:08:45.686Z,100422.00
2022-12-28T14:11:14.098Z,100427.28
2022-12-28T14:13:42.641Z,100420.13
2022-12-28T14:16:11.615Z,100423.59
2022-12-28T14:18:40.307Z,100413.63
2022-12-28T14:21:08.289Z,100416.31
2022-12-28T14:23:39.185Z,100412.69
2022-12-28T14:26:28.353Z,100410.97
2022-12-28T14:28:56.732Z,100404.75
2022-12-28T14:31:33.671Z,100393.00
2022-12-28T14:34:05.238Z,100399.16
2022-12-28T14:36:42.139Z,100398.16
2022-12-28T14:39:45.420Z,100390.34
2022-12-28T14:42:25.077Z,100398.09
2022-12-28T14:44:56.446Z,100388.34
2022-12-28T14:47:33.905Z,100391.53
2022-12-28T14:50:16.668Z,100381.41
2022-12-28T14:52:49.692Z,100374.03
2022-12-28T14:56:05.490Z,100385.50
2022-12-28T14:58:57.970Z,100386.25
2022-12-28T15:01:42.985Z,100373.91
2022-12-28T15:04:41.787Z,100365.16
2022-12-28T15:07:12.151Z,100359.00
2022-12-28T15:09:40.741Z,100360.03
2022-12-28T15:12:14.814Z,100363.59
2022-12-28T15:14:43.647Z,100363.88
2022-12-28T15:17:11.676Z,100361.19
2022-12-28T15:19:41.600Z,100363.31
2022-12-28T15:22:09.714Z,100369.66
2022-12-28T15:24:38.773Z,100365.41
2022-12-28T15:27:06.495Z,100358.38
2022-12-28T15:32:22.187Z,100353.41
2022-12-28T15:34:49.905Z,100341.13
2022-12-28T15:37:17.731Z,100345.66
2022-12-28T15:39:45.657Z,100341.25
2022-12-28T15:42:13.775Z,100348.31
2022-12-28T15:44:41.733Z,100336.94
2022-12-28T15:47:09.623Z,100340.47
2022-12-28T15:49:37.445Z,100335.25
2022-12-28T15:52:05.482Z,100330.72
2022-12-28T15:54:33.281Z,100336.13
2022-12-28T15:57:01.251Z,100327.31
2022-12-28T15:59:29.190Z,100326.50
2022-12-28T16:01:57.306Z,100328.19
2022-12-28T16:04:25.239Z,100332.56
2022-12-28T16:06:52.913Z,100330.06
2022-12-28T16:09:20.876Z,100329.16
2022-12-28T16:11:54.679Z,100326.59
2022-12-28T16:14:23.461Z,100325.81
2022-12-28T16:16:51.560Z,100324.06
2022-12-28T16:19:19.888Z,100322.38
2022-12-28T16:21:51.052Z,100320.59
2022-12-28T16:24:20.331Z,100322.59
2022-12-28T16:26:48.667Z,100316.47
2022-12-28T16:29:16.975Z,100324.47
2022-12-28T16:31:45.050Z,100315.75
2022-12-28T16:34:17.273Z,100305.94
2022-12-28T16:36:49.097Z,100303.25
2022-12-28T16:39:18.079Z,100309.53
2022-12-28T16:41:45.915Z,100299.84
2022-12-28T16:44:18.348Z,100306.88
2022-12-28T16:46:47.356Z,100307.84
2022-12-28T16:49:15.933Z,100310.53
2022-12-28T16:51:46.143Z,100297.25
2022-12-28T16:54:21.031Z,100292.78
2022-12-28T16:56:50.331Z,100292.88
2022-12-28T16:59:22.116Z,100288.38
2022-12-28T17:01:50.564Z,100282.13
2022-12-28T17:04:18.814Z,100271.13
2022-12-28T17:06:50.858Z,100292.19
2022-12-28T17:09:20.044Z,100280.78
2022-12-28T17:11:50.238Z,100280.88
2022-12-28T17:14:35.929Z,100286.13
2022-12-28T17:17:06.796Z,100281.00
2022-12-28T17:19:36.188Z,100288.91
2022-12-28T17:22:05.464Z,100280.13
2022-12-28T17:24:34.296Z,100281.06
2022-12-28T17:27:07.891Z,100275.78
2022-12-28T17:29:38.684Z,100262.59
2022-12-28T17:32:07.436Z,100257.34
2022-12-28T17:34:35.855Z,100260.00
2022-12-28T17:37:04.618Z,100258.25
2022-12-28T17:39:39.434Z,100244.13
2022-12-28T17:42:09.282Z,100240.72
2022-12-28T17:44:37.512Z,100245.13
2022-12-28T17:47:05.384Z,100243.47
2022-12-28T17:49:33.769Z,100234.72
2022-12-28T17:52:01.579Z,100240.78
2022-12-28T17:54:29.796Z,100225.72
2022-12-28T17:56:59.382Z,100215.28
2022-12-28T17:59:27.719Z,100209.19
2022-12-28T18:01:55.603Z,100212.88
2022-12-28T18:04:23.738Z,100205.09
2022-12-28T18:06:51.638Z,100208.63
2022-12-28T18:09:24.021Z,100196.38
2022-12-28T18:11:56.665Z,100186.72
2022-12-28T18:14:26.221Z,100182.41
2022-12-28T18:16:55.352Z,100176.31
2022-12-28T18:19:23.613Z,100179.03
2022-12-28T18:21:51.767Z,100173.69
2022-12-28T18:24:21.043Z,100169.47
2022-12-28T18:26:49.670Z,100176.53
2022-12-28T18:29:18.306Z,100159.13
2022-12-28T18:31:46.523Z,100146.94
2022-12-28T18:34:14.580Z,100152.28
2022-12-28T18:36:42.419Z,100138.28
2022-12-28T18:39:10.707Z,100137.41
2022-12-28T18:41:38.697Z,100128.47
2022-12-28T18:44:06.953Z,100124.16
2022-12-28T18:46:34.861Z,100122.50
2022-12-28T18:49:03.414Z,100128.56
2022-12-28T18:51:31.549Z,100118.09
2022-12-28T18:53:59.463Z,100121.63
2022-12-28T18:56:27.593Z,100127.91
2022-12-28T18:58:56.838Z,100125.44
2022-12-28T19:04:18.205Z,100116.34
2022-12-28T19:06:47.701Z,100121.84
2022-12-28T19:09:17.044Z,100117.63
2022-12-28T19:11:45.275Z,100118.53
2022-12-28T19:14:15.804Z,100117.16
2022-12-28T19:16:45.140Z,100111.41
2022-12-28T19:19:13.456Z,100124.03
2022-12-28T19:21:42.892Z,100118.22
2022-12-28T19:24:20.171Z,100121.16
2022-12-28T19:26:48.641Z,100108.97
2022-12-28T19:29:16.906Z,100118.66
2022-12-28T19:31:45.001Z,100105.44
2022-12-28T19:34:12.824Z,100110.66
2022-12-28T19:36:40.768Z,100100.78
2022-12-28T19:39:08.959Z,100101.53
2022-12-28T19:41:37.140Z,100098.88
2022-12-28T19:44:05.678Z,100089.84
2022-12-28T19:46:34.106Z,100093.09
2022-12-28T19:49:04.732Z,100089.31
2022-12-28T19:51:33.497Z,100089.22
2022-12-28T19:54:02.711Z,100080.09
2022-12-28T19:56:31.068Z,100084.38
2022-12-28T19:59:06.079Z,100079.59
2022-12-28T20:01:37.193Z,100079.47
2022-12-28T20:04:13.465Z,100067.50
2022-12-28T20:06:44.225Z,100074.25
2022-12-28T20:09:14.346Z,100060.63
2022-12-28T20:11:44.693Z,100061.28
2022-12-28T20:14:21.669Z,100055.88
2022-12-28T20:16:54.203Z,100047.59
2022-12-28T20:19:22.401Z,100047.53
2022-12-28T20:21:50.824Z,100044.50
2022-12-28T20:24:21.740Z,100054.09
2022-12-28T20:26:49.991Z,100044.28
2022-12-28T20:29:18.916Z,100046.88
2022-12-28T20:31:49.606Z,100041.34
2022-12-28T20:34:18.156Z,100043.00
2022-12-28T20:36:46.338Z,100029.53
2022-12-28T20:39:14.237Z,100037.38
2022-12-28T20:42:02.691Z,100022.34
2022-12-28T20:44:34.248Z,100019.50
2022-12-28T20:47:02.991Z,100018.50
2022-12-28T20:49:31.815Z,100024.69
2022-12-28T20:51:59.681Z,100017.47
2022-12-28T20:54:28.082Z,100018.25
2022-12-28T20:56:56.560Z,100015.53
2022-12-28T20:59:26.194Z,100008.31
2022-12-28T21:01:54.605Z,99994.97
2022-12-28T21:04:24.470Z,100001.81
2022-12-28T21:06:53.753Z,100002.44
2022-12-28T21:09:21.774Z,100005.03
2022-12-28T21:11:49.913Z,99994.22
2022-12-28T21:14:18.420Z,99990.38
2022-12-28T21:16:46.308Z,99984.81
2022-12-28T21:19:15.003Z,99973.94
2022-12-28T21:21:43.284Z,99972.75
2022-12-28T21:24:11.351Z,99966.34
2022-12-28T21:26:39.381Z,99973.97
2022-12-28T21:29:07.373Z,99975.50
2022-12-28T21:31:35.446Z,99972.56
2022-12-28T21:34:03.824Z,99973.19
2022-12-28T21:36:31.953Z,99974.72
2022-12-28T21:39:00.237Z,99971.81
2022-12-28T21:41:47.114Z,99965.25
2022-12-28T21:44:22.044Z,99976.56
2022-12-28T21:46:53.007Z,99966.59
2022-12-28T21:49:21.493Z,99963.72
2022-12-28T21:51:50.442Z,99965.31
2022-12-28T21:54:21.787Z,99966.72
2022-12-28T21:56:52.775Z,99970.13
2022-12-28T21:59:23.477Z,99981.00
2022-12-28T22:02:10.567Z,99979.69
2022-12-28T22:05:02.673Z,99975.16
2022-12-28T22:07:31.899Z,99966.88
2022-12-28T22:10:18.468Z,99976.41
2022-12-28T22:12:46.592Z,99969.16
2022-12-28T22:15:37.543Z,99965.28
2022-12-28T22:18:30.138Z,99962.59
2022-12-28T22:21:05.613Z,99966.22
2022-12-28T22:23:35.141Z,99959.84
2022-12-28T22:26:04.304Z,99950.72
2022-12-28T22:28:33.010Z,99959.44
2022-12-28T22:31:08.645Z,99957.47
2022-12-28T22:33:37.169Z,99951.41
2022-12-28T22:36:18.809Z,99957.28
2022-12-28T22:38:47.368Z,99952.03
2022-12-28T22:41:15.353Z,99954.53
2022-12-28T22:43:43.424Z,99957.97
2022-12-28T22:46:12.653Z,99949.00
2022-12-28T22:48:40.859Z,99950.66
2022-12-28T22:51:13.209Z,99954.03
2022-12-28T22:53:41.569Z,99953.09
2022-12-28T22:56:21.065Z,99960.06
2022-12-28T22:58:49.156Z,99955.75
2022-12-28T23:01:19.387Z,99958.19
2022-12-28T23:03:48.422Z,99959.91
2022-12-28T23:06:19.735Z,99965.00
2022-12-28T23:08:47.648Z,99964.09
2022-12-28T23:11:36.655Z,99953.00
2022-12-28T23:14:26.884Z,99959.72
2022-12-28T23:16:55.437Z,99954.31
2022-12-28T23:19:42.759Z,99958.59
2022-12-28T23:22:34.715Z,99953.34
2022-12-28T23:25:22.443Z,99948.88
2022-12-28T23:27:52.035Z,99943.50
2022-12-28T23:30:22.406Z,99945.94
2022-12-28T23:32:52.319Z,99939.63
2022-12-28T23:35:40.306Z,99936.94
2022-12-28T23:38:08.308Z,99924.38
2022-12-28T23:40:40.132Z,99923.31
2022-12-28T23:43:08.367Z,99919.91
2022-12-28T23:45:36.799Z,99916.69
2022-12-28T23:48:05.467Z,99907.53
2022-12-28T23:50:33.472Z,99916.25
2022-12-28T23:53:01.467Z,99909.97
2022-12-28T23:55:29.716Z,99924.97
2022-12-28T23:57:57.508Z,99903.59
